Terminal Aerodrome Forecast
Issued by NWS

Home | Current Version | Previous Version | Text Only | Print | Product List | Glossary On
Versions: 1 2 3 4 5 6 7 8 9 10 11 12
000
FTUS45 KBOI 222334
TAFTWF
TAF
KTWF 222334Z 2300/2324 34007KT P6SM FEW200
     FM230200 18010KT P6SM BKN150
     FM231800 VRB06KT P6SM VCTS FEW100CB BKN150=

USA.gov is the U.S. government's official web portal to all federal, state and local government web resources and services.